createdAt,value
2019-01-26T00:00:38.721Z,74.17
2019-01-26T00:03:06.441Z,74.60
2019-01-26T00:05:34.364Z,63.40
2019-01-26T00:08:01.664Z,61.08
2019-01-26T00:10:29.041Z,58.53
2019-01-26T00:12:56.327Z,58.30
2019-01-26T00:15:23.621Z,68.90
2019-01-26T00:17:50.973Z,61.10
2019-01-26T00:20:18.268Z,60.38
2019-01-26T00:22:45.824Z,59.50
2019-01-26T00:25:13.205Z,57.53
2019-01-26T00:27:40.497Z,51.17
2019-01-26T00:30:12.290Z,57.70
2019-01-26T00:32:39.642Z,56.07
2019-01-26T00:35:07.314Z,65.47
2019-01-26T00:37:34.598Z,54.73
2019-01-26T00:40:01.894Z,54.80
2019-01-26T00:42:29.247Z,67.63
2019-01-26T00:44:56.545Z,50.63
2019-01-26T00:47:24.187Z,59.37
2019-01-26T00:49:51.487Z,44.60
2019-01-26T00:52:18.769Z,47.47
2019-01-26T00:54:46.069Z,54.07
2019-01-26T00:57:13.830Z,35.13
2019-01-26T00:59:41.129Z,30.37
2019-01-26T01:02:08.414Z,41.23
2019-01-26T01:04:36.087Z,35.90
2019-01-26T01:07:04.078Z,45.47
2019-01-26T01:09:31.363Z,39.23
2019-01-26T01:11:58.665Z,41.73
2019-01-26T01:14:25.961Z,39.93
2019-01-26T01:16:53.332Z,37.10
2019-01-26T01:19:20.614Z,39.33
2019-01-26T01:21:47.972Z,41.57
2019-01-26T01:24:15.778Z,51.03
2019-01-26T01:26:43.141Z,39.73
2019-01-26T01:29:10.801Z,42.30
2019-01-26T01:31:38.106Z,51.30
2019-01-26T01:34:05.460Z,39.60
2019-01-26T01:36:32.764Z,45.50
2019-01-26T01:39:00.120Z,43.17
2019-01-26T01:41:27.634Z,36.20
2019-01-26T01:43:54.913Z,35.57
2019-01-26T01:46:22.611Z,40.50
2019-01-26T01:48:50.287Z,29.90
2019-01-26T01:51:18.050Z,26.83
2019-01-26T01:53:45.528Z,24.93
2019-01-26T01:56:12.904Z,33.70
2019-01-26T01:58:40.181Z,31.87
2019-01-26T02:01:07.485Z,32.27
2019-01-26T02:03:35.141Z,33.10
2019-01-26T02:06:02.447Z,26.67
2019-01-26T02:08:29.733Z,23.47
2019-01-26T02:10:57.314Z,26.50
2019-01-26T02:13:24.601Z,25.60
2019-01-26T02:15:51.949Z,29.73
2019-01-26T02:18:19.245Z,23.83
2019-01-26T02:20:46.532Z,30.80
2019-01-26T02:23:13.846Z,21.47
2019-01-26T02:25:41.190Z,19.20
2019-01-26T02:28:08.470Z,24.17
2019-01-26T02:30:35.894Z,25.50
2019-01-26T02:33:03.240Z,30.97
2019-01-26T02:35:30.546Z,28.23
2019-01-26T02:37:57.839Z,30.07
2019-01-26T02:40:25.126Z,25.37
2019-01-26T02:42:52.763Z,22.10
2019-01-26T02:45:20.526Z,21.13
2019-01-26T02:47:47.805Z,24.30
2019-01-26T02:50:16.749Z,29.35
2019-01-26T02:52:44.101Z,20.97
2019-01-26T02:55:11.478Z,17.67
2019-01-26T02:57:38.833Z,28.33
2019-01-26T03:00:07.949Z,21.00
2019-01-26T03:02:35.302Z,27.93
2019-01-26T03:05:03.382Z,25.23
2019-01-26T03:07:30.855Z,25.90
2019-01-26T03:09:58.300Z,24.60
2019-01-26T03:12:25.970Z,25.90
2019-01-26T03:14:53.334Z,23.27
2019-01-26T03:17:20.991Z,22.83
2019-01-26T03:19:48.879Z,24.87
2019-01-26T03:22:16.209Z,18.53
2019-01-26T03:24:43.498Z,18.77
2019-01-26T03:27:10.790Z,20.03
2019-01-26T03:29:38.066Z,25.53
2019-01-26T03:32:05.752Z,23.03
2019-01-26T03:34:33.033Z,27.90
2019-01-26T03:37:00.757Z,23.35
2019-01-26T03:39:28.117Z,36.60
2019-01-26T03:41:55.480Z,22.73
2019-01-26T03:44:22.906Z,21.60
2019-01-26T03:46:50.213Z,26.40
2019-01-26T03:49:17.971Z,23.57
2019-01-26T03:51:45.269Z,14.93
2019-01-26T03:54:12.621Z,26.70
2019-01-26T03:56:40.084Z,19.63
2019-01-26T03:59:07.372Z,24.53
2019-01-26T04:01:34.813Z,22.50
2019-01-26T04:04:02.161Z,25.13
2019-01-26T04:06:29.777Z,25.13
2019-01-26T04:08:57.129Z,22.30
2019-01-26T04:11:24.461Z,28.70
2019-01-26T04:13:51.743Z,17.40
2019-01-26T04:16:19.159Z,12.23
2019-01-26T04:18:46.454Z,23.43
2019-01-26T04:21:14.135Z,17.53
2019-01-26T04:23:41.489Z,22.20
2019-01-26T04:26:08.797Z,27.30
2019-01-26T04:28:36.086Z,24.00
2019-01-26T04:31:03.393Z,24.67
2019-01-26T04:33:30.678Z,28.40
2019-01-26T04:35:57.979Z,23.37
2019-01-26T04:38:25.278Z,29.60
2019-01-26T04:40:52.582Z,24.10
2019-01-26T04:43:20.001Z,15.93
2019-01-26T04:45:47.606Z,34.07
2019-01-26T04:48:15.375Z,27.53
2019-01-26T04:50:42.731Z,36.67
2019-01-26T04:53:10.458Z,28.65
2019-01-26T04:55:37.813Z,38.23
2019-01-26T04:58:05.376Z,40.97
2019-01-26T05:00:32.744Z,33.70
2019-01-26T05:03:00.046Z,32.17
2019-01-26T05:05:27.400Z,32.90
2019-01-26T05:07:55.258Z,31.53
2019-01-26T05:10:22.818Z,42.53
2019-01-26T05:12:50.385Z,38.73
2019-01-26T05:15:18.441Z,31.20
2019-01-26T05:17:45.758Z,32.67
2019-01-26T05:20:14.574Z,31.50
2019-01-26T05:22:41.931Z,27.13
2019-01-26T05:25:09.578Z,37.00
2019-01-26T05:27:36.886Z,32.50
2019-01-26T05:30:05.711Z,22.37
2019-01-26T05:32:33.017Z,46.50
2019-01-26T05:35:00.297Z,24.30
2019-01-26T05:37:27.596Z,23.93
2019-01-26T05:39:54.885Z,32.50
2019-01-26T05:42:22.191Z,30.37
2019-01-26T05:44:49.821Z,35.13
2019-01-26T05:47:17.338Z,27.07
2019-01-26T05:49:44.628Z,29.50
2019-01-26T05:52:11.932Z,31.77
2019-01-26T05:54:39.212Z,33.77
2019-01-26T05:57:06.557Z,28.40
2019-01-26T05:59:33.850Z,30.97
2019-01-26T06:02:01.154Z,28.77
2019-01-26T06:04:28.633Z,34.27
2019-01-26T06:06:55.912Z,38.87
2019-01-26T06:09:23.251Z,31.23
2019-01-26T06:11:50.536Z,21.30
2019-01-26T06:14:18.222Z,38.87
2019-01-26T06:16:45.494Z,25.47
2019-01-26T06:19:12.801Z,25.73
2019-01-26T06:21:40.445Z,18.10
2019-01-26T06:24:07.760Z,34.20
2019-01-26T06:26:35.126Z,26.37
2019-01-26T06:29:02.496Z,27.90
2019-01-26T06:31:29.773Z,24.50
2019-01-26T06:33:57.076Z,22.23
2019-01-26T06:36:24.363Z,22.63
2019-01-26T06:38:53.527Z,38.97
2019-01-26T06:41:20.956Z,26.83
2019-01-26T06:43:48.260Z,24.63
2019-01-26T06:46:15.549Z,30.17
2019-01-26T06:48:43.216Z,28.55
2019-01-26T06:51:10.640Z,29.63
2019-01-26T06:53:38.012Z,23.70
2019-01-26T06:56:05.354Z,25.53
2019-01-26T06:58:32.662Z,25.47
2019-01-26T07:00:59.941Z,30.07
2019-01-26T07:03:27.246Z,30.20
2019-01-26T07:05:56.172Z,24.60
2019-01-26T07:08:23.459Z,26.53
2019-01-26T07:10:51.337Z,20.20
2019-01-26T07:13:18.689Z,28.63
2019-01-26T07:15:46.000Z,24.30
2019-01-26T07:18:13.521Z,22.27
2019-01-26T07:20:41.037Z,29.23
2019-01-26T07:23:08.420Z,20.92
2019-01-26T07:25:35.719Z,23.60
2019-01-26T07:28:03.076Z,23.73
2019-01-26T07:30:30.438Z,34.03
2019-01-26T07:32:57.720Z,28.77
2019-01-26T07:35:25.030Z,29.43
2019-01-26T07:37:52.393Z,16.10
2019-01-26T07:40:21.030Z,31.93
2019-01-26T07:42:48.477Z,44.10
2019-01-26T07:45:16.245Z,30.77
2019-01-26T07:47:43.533Z,29.83
2019-01-26T07:50:12.399Z,27.80
2019-01-26T07:52:39.761Z,29.40
2019-01-26T07:55:08.501Z,20.40
2019-01-26T07:57:36.148Z,39.57
2019-01-26T08:00:04.994Z,30.40
2019-01-26T08:02:33.012Z,27.43
2019-01-26T08:05:00.381Z,31.03
2019-01-26T08:07:27.761Z,21.90
2019-01-26T08:09:55.491Z,32.60
2019-01-26T08:12:22.780Z,29.13
2019-01-26T08:14:51.480Z,15.57
2019-01-26T08:17:18.873Z,36.20
2019-01-26T08:19:46.167Z,33.57
2019-01-26T08:22:13.508Z,25.70
2019-01-26T08:24:40.785Z,28.13
2019-01-26T08:27:08.085Z,26.60
2019-01-26T08:29:35.486Z,20.47
2019-01-26T08:32:02.861Z,28.17
2019-01-26T08:34:30.146Z,29.77
2019-01-26T08:36:57.445Z,30.43
2019-01-26T08:39:24.722Z,24.07
2019-01-26T08:41:52.017Z,29.80
2019-01-26T08:44:19.627Z,35.40
2019-01-26T08:46:47.864Z,33.10
2019-01-26T08:49:15.225Z,25.13
2019-01-26T08:51:42.901Z,29.93
2019-01-26T08:54:10.184Z,26.27
2019-01-26T08:56:37.956Z,30.23
2019-01-26T08:59:05.308Z,24.37
2019-01-26T09:01:32.621Z,26.23
2019-01-26T09:04:01.978Z,24.10
2019-01-26T09:06:30.785Z,28.00
2019-01-26T09:08:58.064Z,28.43
2019-01-26T09:11:25.437Z,25.83
2019-01-26T09:13:52.795Z,35.33
2019-01-26T09:16:20.149Z,34.70
2019-01-26T09:18:47.489Z,26.83
2019-01-26T09:21:14.938Z,32.33
2019-01-26T09:23:42.247Z,28.43
2019-01-26T09:26:09.605Z,27.07
2019-01-26T09:28:36.978Z,25.33
2019-01-26T09:31:05.053Z,27.43
2019-01-26T09:33:32.417Z,26.87
2019-01-26T09:35:59.783Z,26.20
2019-01-26T09:38:27.150Z,23.27
2019-01-26T09:40:54.441Z,28.30
2019-01-26T09:43:21.801Z,26.27
2019-01-26T09:45:49.101Z,18.37
2019-01-26T09:48:16.418Z,20.10
2019-01-26T09:50:44.013Z,18.37
2019-01-26T09:53:11.318Z,22.00
2019-01-26T09:55:38.667Z,23.63
2019-01-26T09:58:06.406Z,18.60
2019-01-26T10:00:33.741Z,21.77
2019-01-26T10:03:01.151Z,21.97
2019-01-26T10:05:28.493Z,19.27
2019-01-26T10:07:55.821Z,14.53
2019-01-26T10:10:23.409Z,20.80
2019-01-26T10:12:50.768Z,20.87
2019-01-26T10:15:19.946Z,19.93
2019-01-26T10:17:47.458Z,19.90
2019-01-26T10:20:16.621Z,15.13
2019-01-26T10:22:43.918Z,13.40
2019-01-26T10:25:12.906Z,11.50
2019-01-26T10:27:40.291Z,17.63
2019-01-26T10:30:09.277Z,24.37
2019-01-26T10:32:36.561Z,21.30
2019-01-26T10:35:04.921Z,30.33
2019-01-26T10:37:32.205Z,21.37
2019-01-26T10:39:59.782Z,34.03
2019-01-26T10:42:27.549Z,18.50
2019-01-26T10:44:54.990Z,29.00
2019-01-26T10:47:22.266Z,24.27
2019-01-26T10:49:49.574Z,39.93
2019-01-26T10:52:16.863Z,22.93
2019-01-26T10:54:44.260Z,23.23
2019-01-26T10:57:11.554Z,21.48
2019-01-26T10:59:38.928Z,23.00
2019-01-26T11:02:06.924Z,21.50
2019-01-26T11:04:34.324Z,19.90
2019-01-26T11:07:01.639Z,19.90
2019-01-26T11:09:28.944Z,25.30
2019-01-26T11:11:56.228Z,23.70
2019-01-26T11:14:23.801Z,24.43
2019-01-26T11:16:51.191Z,20.73
2019-01-26T11:19:18.484Z,28.60
2019-01-26T11:21:45.786Z,17.47
2019-01-26T11:24:13.146Z,29.80
2019-01-26T11:26:40.636Z,24.90
2019-01-26T11:29:08.062Z,17.40
2019-01-26T11:31:36.211Z,17.90
2019-01-26T11:34:04.167Z,26.97
2019-01-26T11:36:31.477Z,19.90
2019-01-26T11:38:59.220Z,21.83
2019-01-26T11:41:26.596Z,19.87
2019-01-26T11:43:53.949Z,19.40
2019-01-26T11:46:22.971Z,23.03
2019-01-26T11:48:50.389Z,18.90
2019-01-26T11:51:19.524Z,21.50
2019-01-26T11:53:46.802Z,21.13
2019-01-26T11:56:24.601Z,17.73
2019-01-26T11:58:51.989Z,19.53
2019-01-26T12:01:21.041Z,29.80
2019-01-26T12:03:50.005Z,22.53
2019-01-26T12:06:19.414Z,19.10
2019-01-26T12:08:46.785Z,18.90
2019-01-26T12:11:14.082Z,16.00
2019-01-26T12:13:41.445Z,15.83
2019-01-26T12:16:08.803Z,26.43
2019-01-26T12:18:36.406Z,18.13
2019-01-26T12:21:03.959Z,14.73
2019-01-26T12:23:31.250Z,11.07
2019-01-26T12:26:00.667Z,15.30
2019-01-26T12:28:27.721Z,15.23
2019-01-26T12:30:55.070Z,14.20
2019-01-26T12:33:22.370Z,10.30
2019-01-26T12:35:49.649Z,11.57
2019-01-26T12:38:16.959Z,14.90
2019-01-26T12:40:44.673Z,20.50
2019-01-26T12:43:11.951Z,18.77
2019-01-26T12:45:39.325Z,20.53
2019-01-26T12:48:06.978Z,15.03
2019-01-26T12:50:34.342Z,19.47
2019-01-26T12:53:01.617Z,12.60
2019-01-26T12:55:28.991Z,10.50
2019-01-26T12:57:56.285Z,15.60
2019-01-26T13:00:24.627Z,12.23
2019-01-26T13:02:52.045Z,19.07
2019-01-26T13:05:19.510Z,16.17
2019-01-26T13:07:47.137Z,11.30
2019-01-26T13:10:15.983Z,37.10
2019-01-26T13:12:43.335Z,40.10
2019-01-26T13:15:15.189Z,28.03
2019-01-26T13:17:39.989Z,26.27
2019-01-26T13:20:12.128Z,29.33
2019-01-26T13:22:39.791Z,18.10
2019-01-26T13:25:08.453Z,18.50
2019-01-26T13:27:36.501Z,24.93
2019-01-26T13:30:05.856Z,24.10
2019-01-26T13:32:33.342Z,20.50
2019-01-26T13:35:00.641Z,19.17
2019-01-26T13:37:27.926Z,27.83
2019-01-26T13:39:55.220Z,22.20
2019-01-26T13:42:22.961Z,19.60
2019-01-26T13:44:50.262Z,20.43
2019-01-26T13:47:17.614Z,16.43
2019-01-26T13:49:44.976Z,16.87
2019-01-26T13:52:12.288Z,17.90
2019-01-26T13:54:39.596Z,15.90
2019-01-26T13:57:06.990Z,20.57
2019-01-26T13:59:34.762Z,21.50
2019-01-26T14:02:02.249Z,23.40
2019-01-26T14:04:29.534Z,19.97
2019-01-26T14:06:56.841Z,23.60
2019-01-26T14:09:24.126Z,15.13
2019-01-26T14:11:51.494Z,17.47
2019-01-26T14:14:18.786Z,20.83
2019-01-26T14:16:46.107Z,22.23
2019-01-26T14:19:13.461Z,14.60
2019-01-26T14:21:40.826Z,19.47
2019-01-26T14:24:08.440Z,18.07
2019-01-26T14:26:35.733Z,13.27
2019-01-26T14:29:03.291Z,15.17
2019-01-26T14:31:31.024Z,11.53
2019-01-26T14:33:58.342Z,23.20
2019-01-26T14:36:25.721Z,9.90
2019-01-26T14:38:53.179Z,17.77
2019-01-26T14:41:21.477Z,12.80
2019-01-26T14:43:48.790Z,16.20
2019-01-26T14:46:16.158Z,17.30
2019-01-26T14:48:43.441Z,25.37
2019-01-26T14:51:10.741Z,18.30
2019-01-26T14:53:38.027Z,14.07
2019-01-26T14:56:05.410Z,13.97
2019-01-26T14:58:32.761Z,12.87
2019-01-26T15:01:00.146Z,20.13
2019-01-26T15:03:27.510Z,9.50
2019-01-26T15:05:54.806Z,14.60
2019-01-26T15:08:22.091Z,10.40
2019-01-26T15:10:49.442Z,11.00
2019-01-26T15:13:16.801Z,14.97
2019-01-26T15:15:44.485Z,7.93
2019-01-26T15:18:11.818Z,12.07
2019-01-26T15:20:39.916Z,13.77
2019-01-26T15:23:07.709Z,8.93
2019-01-26T15:25:35.544Z,11.00
2019-01-26T15:28:02.916Z,8.93
2019-01-26T15:30:31.661Z,10.90
2019-01-26T15:32:58.979Z,12.37
2019-01-26T15:35:26.627Z,13.07
2019-01-26T15:37:54.196Z,15.47
2019-01-26T15:40:21.626Z,13.23
2019-01-26T15:42:49.066Z,10.40
2019-01-26T15:45:17.889Z,11.13
2019-01-26T15:47:45.285Z,13.03
2019-01-26T15:50:13.804Z,12.00
2019-01-26T15:52:41.229Z,12.43
2019-01-26T15:55:10.048Z,9.43
2019-01-26T15:57:37.508Z,20.07
2019-01-26T16:00:06.423Z,13.17
2019-01-26T16:02:34.314Z,11.50
2019-01-26T16:05:01.990Z,12.05
2019-01-26T16:07:29.355Z,8.97
2019-01-26T16:09:56.642Z,10.27
2019-01-26T16:12:24.085Z,19.53
2019-01-26T16:14:51.367Z,11.60
2019-01-26T16:17:18.772Z,10.13
2019-01-26T16:19:46.061Z,11.43
2019-01-26T16:22:13.451Z,19.90
2019-01-26T16:24:41.041Z,9.57
2019-01-26T16:27:08.322Z,10.87
2019-01-26T16:29:35.626Z,14.97
2019-01-26T16:32:02.992Z,14.50
2019-01-26T16:34:30.288Z,14.63
2019-01-26T16:36:57.575Z,10.97
2019-01-26T16:39:24.928Z,9.60
2019-01-26T16:41:52.649Z,10.35
2019-01-26T16:44:20.022Z,9.20
2019-01-26T16:46:47.298Z,13.73
2019-01-26T16:49:14.675Z,16.50
2019-01-26T16:51:42.027Z,11.13
2019-01-26T16:54:09.326Z,12.60
2019-01-26T16:56:36.604Z,13.53
2019-01-26T16:59:04.168Z,13.60
2019-01-26T17:01:31.830Z,23.57
2019-01-26T17:03:59.208Z,18.00
2019-01-26T17:06:26.866Z,19.23
2019-01-26T17:08:54.210Z,13.50
2019-01-26T17:11:21.621Z,15.23
2019-01-26T17:13:49.474Z,16.33
2019-01-26T17:16:16.746Z,12.93
2019-01-26T17:18:46.268Z,14.83
2019-01-26T17:21:13.153Z,16.97
2019-01-26T17:23:40.539Z,11.77
2019-01-26T17:26:08.386Z,17.13
2019-01-26T17:28:35.733Z,11.00
2019-01-26T17:31:03.037Z,13.40
2019-01-26T17:33:30.317Z,17.20
2019-01-26T17:35:58.002Z,13.47
2019-01-26T17:38:25.290Z,15.93
2019-01-26T17:40:54.531Z,15.70
2019-01-26T17:43:21.601Z,15.97
2019-01-26T17:45:48.913Z,14.57
2019-01-26T17:48:16.254Z,14.80
2019-01-26T17:50:43.550Z,10.43
2019-01-26T17:53:10.842Z,13.23
2019-01-26T17:55:38.203Z,16.20
2019-01-26T17:58:05.655Z,10.70
2019-01-26T18:00:35.766Z,9.30
2019-01-26T18:03:03.043Z,11.40
2019-01-26T18:05:30.366Z,9.90
2019-01-26T18:07:57.733Z,12.47
2019-01-26T18:10:26.062Z,10.87
2019-01-26T18:12:53.409Z,13.90
2019-01-26T18:15:21.157Z,13.73
2019-01-26T18:17:48.708Z,16.57
2019-01-26T18:20:17.762Z,18.37
2019-01-26T18:22:45.064Z,16.53
2019-01-26T18:25:12.585Z,10.47
2019-01-26T18:27:39.870Z,16.10
2019-01-26T18:30:08.716Z,15.53
2019-01-26T18:32:36.353Z,13.80
2019-01-26T18:35:05.028Z,23.97
2019-01-26T18:37:32.309Z,18.13
2019-01-26T18:39:59.646Z,14.53
2019-01-26T18:42:27.036Z,24.20
2019-01-26T18:46:07.500Z,14.97
2019-01-26T18:48:35.811Z,18.90
2019-01-26T18:51:04.279Z,14.40
2019-01-26T18:53:32.585Z,10.57
2019-01-26T18:56:00.915Z,16.87
2019-01-26T18:58:29.686Z,13.23
2019-01-26T19:00:58.016Z,13.20
2019-01-26T19:03:35.172Z,18.50
2019-01-26T19:06:04.141Z,13.35
2019-01-26T19:08:32.456Z,20.43
2019-01-26T19:11:00.862Z,21.30
2019-01-26T19:13:29.187Z,18.47
2019-01-26T19:15:57.613Z,17.97
2019-01-26T19:18:25.919Z,16.67
2019-01-26T19:20:54.324Z,15.77
2019-01-26T19:23:22.637Z,16.07
2019-01-26T19:25:51.017Z,14.63
2019-01-26T19:28:19.429Z,16.42
2019-01-26T19:30:47.746Z,13.55
2019-01-26T19:33:16.153Z,14.85
2019-01-26T19:35:44.537Z,12.57
2019-01-26T19:38:13.336Z,13.48
2019-01-26T19:40:41.658Z,22.53
2019-01-26T19:43:09.988Z,18.80
2019-01-26T19:45:38.318Z,16.37
2019-01-26T19:48:07.044Z,15.53
2019-01-26T19:50:35.416Z,14.75
2019-01-26T19:53:04.117Z,16.43
2019-01-26T19:55:32.497Z,15.10
2019-01-26T19:58:01.039Z,16.70
2019-01-26T20:00:29.432Z,12.60
2019-01-26T20:02:59.255Z,13.90
2019-01-26T20:05:27.898Z,12.03
2019-01-26T20:07:56.299Z,10.30
2019-01-26T20:10:24.683Z,11.07
2019-01-26T20:12:53.159Z,11.13
2019-01-26T20:15:23.314Z,13.22
2019-01-26T20:17:52.036Z,11.10
2019-01-26T20:20:29.935Z,9.60
2019-01-26T20:22:58.328Z,8.37
2019-01-26T20:25:26.711Z,8.27
2019-01-26T20:27:55.137Z,9.30
2019-01-26T20:30:26.908Z,8.28
2019-01-26T20:32:55.493Z,11.43
2019-01-26T20:35:23.823Z,14.00
2019-01-26T20:37:52.605Z,10.43
2019-01-26T20:40:21.457Z,11.47
2019-01-26T20:42:49.906Z,19.77
2019-01-26T20:45:24.430Z,19.53
2019-01-26T20:47:53.038Z,16.40
2019-01-26T20:50:21.518Z,8.57
2019-01-26T20:52:50.264Z,11.57
2019-01-26T20:55:18.651Z,14.60
2019-01-26T20:57:47.043Z,10.83
2019-01-26T21:00:26.820Z,11.95
2019-01-26T21:02:55.226Z,19.60
2019-01-26T21:05:23.604Z,16.00
2019-01-26T21:07:52.071Z,13.50
2019-01-26T21:10:22.988Z,12.70
2019-01-26T21:12:51.889Z,9.47
2019-01-26T21:15:20.574Z,16.35
2019-01-26T21:17:48.956Z,13.77
2019-01-26T21:20:19.989Z,15.25
2019-01-26T21:22:48.480Z,16.17
2019-01-26T21:25:16.885Z,17.10
2019-01-26T21:27:45.445Z,14.60
2019-01-26T21:30:22.439Z,13.10
2019-01-26T21:32:51.108Z,15.83
2019-01-26T21:35:19.464Z,14.40
2019-01-26T21:37:47.876Z,15.47
2019-01-26T21:40:19.213Z,18.25
2019-01-26T21:42:47.972Z,15.80
2019-01-26T21:45:17.344Z,14.93
2019-01-26T21:47:45.995Z,13.07
2019-01-26T21:50:17.468Z,56.08
2019-01-26T21:52:45.859Z,14.78
2019-01-26T21:55:14.623Z,9.47
2019-01-26T21:57:43.311Z,12.33
2019-01-26T22:00:20.208Z,15.40
2019-01-26T22:02:48.585Z,8.80
2019-01-26T22:05:17.071Z,15.67
2019-01-26T22:07:46.586Z,17.40
2019-01-26T22:10:18.074Z,12.70
2019-01-26T22:12:46.758Z,7.80
2019-01-26T22:15:18.195Z,19.37
2019-01-26T22:17:46.751Z,9.60
2019-01-26T22:20:17.676Z,10.93
2019-01-26T22:22:46.726Z,15.00
2019-01-26T22:25:15.229Z,11.23
2019-01-26T22:27:43.536Z,9.37
2019-01-26T22:30:15.036Z,15.73
2019-01-26T22:32:43.346Z,9.53
2019-01-26T22:35:11.754Z,23.37
2019-01-26T22:37:40.060Z,9.60
2019-01-26T22:40:12.115Z,15.20
2019-01-26T22:42:40.428Z,12.07
2019-01-26T22:45:11.003Z,12.10
2019-01-26T22:47:39.362Z,16.05
2019-01-26T22:50:10.937Z,12.90
2019-01-26T22:52:39.450Z,16.23
2019-01-26T22:55:11.420Z,11.27
2019-01-26T22:57:39.872Z,14.13
2019-01-26T23:00:29.227Z,18.77
2019-01-26T23:02:58.070Z,12.60
2019-01-26T23:05:29.577Z,12.30
2019-01-26T23:07:58.026Z,14.50
2019-01-26T23:10:46.324Z,19.30
2019-01-26T23:13:17.813Z,12.87
2019-01-26T23:15:57.561Z,8.83
2019-01-26T23:18:38.007Z,12.05
2019-01-26T23:21:12.283Z,14.00
2019-01-26T23:23:58.908Z,8.88
2019-01-26T23:26:45.946Z,19.57
2019-01-26T23:29:23.030Z,18.20
2019-01-26T23:31:51.336Z,15.20
2019-01-26T23:34:19.671Z,12.20
2019-01-26T23:36:47.989Z,15.70
2019-01-26T23:39:16.320Z,17.90
2019-01-26T23:41:44.966Z,11.80
2019-01-26T23:44:13.297Z,11.55
2019-01-26T23:46:41.617Z,10.25
2019-01-26T23:49:10.322Z,11.53
2019-01-26T23:51:38.702Z,9.80
2019-01-26T23:54:07.395Z,11.73
2019-01-26T23:56:35.779Z,13.83
2019-01-26T23:59:04.235Z,9.27
